createdAt,value
2018-04-27T00:00:14.192Z,18.30
2018-04-27T00:00:51.591Z,18.30
2018-04-27T00:01:29.763Z,18.10
2018-04-27T00:02:08.062Z,18.10
2018-04-27T00:02:46.373Z,18.10
2018-04-27T00:03:24.495Z,18.10
2018-04-27T00:04:02.109Z,18.10
2018-04-27T00:04:39.649Z,18.10
2018-04-27T00:05:17.204Z,18.10
2018-04-27T00:05:54.533Z,18.10
2018-04-27T00:06:31.881Z,18.10
2018-04-27T00:07:09.454Z,18.10
2018-04-27T00:07:47.040Z,18.10
2018-04-27T00:08:24.583Z,18.10
2018-04-27T00:09:02.100Z,18.00
2018-04-27T00:09:39.665Z,18.00
2018-04-27T00:10:17.127Z,18.00
2018-04-27T00:10:54.494Z,18.00
2018-04-27T00:11:32.134Z,18.00
2018-04-27T00:12:09.591Z,18.00
2018-04-27T00:12:47.038Z,18.00
2018-04-27T00:13:24.419Z,18.00
2018-04-27T00:14:01.935Z,18.00
2018-04-27T00:14:40.100Z,17.90
2018-04-27T00:15:18.216Z,17.80
2018-04-27T00:15:55.786Z,17.80
2018-04-27T00:16:34.077Z,17.80
2018-04-27T00:17:11.695Z,17.70
2018-04-27T00:17:49.197Z,17.80
2018-04-27T00:18:26.579Z,17.80
2018-04-27T00:19:04.903Z,17.70
2018-04-27T00:19:42.488Z,17.70
2018-04-27T00:20:20.002Z,17.80
2018-04-27T00:20:57.443Z,17.80
2018-04-27T00:21:35.008Z,17.80
2018-04-27T00:22:12.561Z,17.80
2018-04-27T00:22:50.780Z,17.80
2018-04-27T00:23:29.064Z,17.80
2018-04-27T00:24:06.650Z,17.80
2018-04-27T00:24:44.205Z,17.80
2018-04-27T00:25:21.580Z,17.80
2018-04-27T00:25:59.201Z,17.80
2018-04-27T00:26:36.809Z,17.80
2018-04-27T00:27:14.375Z,17.80
2018-04-27T00:27:51.951Z,17.80
2018-04-27T00:28:29.334Z,17.80
2018-04-27T00:29:07.507Z,17.90
2018-04-27T00:29:44.885Z,17.90
2018-04-27T00:30:22.251Z,17.90
2018-04-27T00:30:59.602Z,17.90
2018-04-27T00:31:36.966Z,17.90
2018-04-27T00:32:14.470Z,17.80
2018-04-27T00:32:52.602Z,17.80
2018-04-27T00:33:30.143Z,17.70
2018-04-27T00:34:08.252Z,17.70
2018-04-27T00:34:46.377Z,17.70
2018-04-27T00:35:23.939Z,17.70
2018-04-27T00:36:01.520Z,17.70
2018-04-27T00:36:39.110Z,17.60
2018-04-27T00:37:16.701Z,17.70
2018-04-27T00:37:54.263Z,17.60
2018-04-27T00:38:31.611Z,17.60
2018-04-27T00:39:08.987Z,17.60
2018-04-27T00:39:46.370Z,17.60
2018-04-27T00:40:24.490Z,17.60
2018-04-27T00:41:02.443Z,17.60
2018-04-27T00:41:40.776Z,17.70
2018-04-27T00:42:18.175Z,17.70
2018-04-27T00:42:55.756Z,17.70
2018-04-27T00:43:33.110Z,17.70
2018-04-27T00:44:11.415Z,17.70
2018-04-27T00:44:49.700Z,17.70
2018-04-27T00:45:27.115Z,17.80
2018-04-27T00:46:04.651Z,17.70
2018-04-27T00:46:42.107Z,17.70
2018-04-27T00:47:19.716Z,17.70
2018-04-27T00:47:57.839Z,17.70
2018-04-27T00:48:36.117Z,17.70
2018-04-27T00:49:13.592Z,17.70
2018-04-27T00:49:51.700Z,17.60
2018-04-27T00:50:29.887Z,17.60
2018-04-27T00:51:07.469Z,17.60
2018-04-27T00:51:44.942Z,17.60
2018-04-27T00:52:22.544Z,17.60
2018-04-27T00:52:59.935Z,17.60
2018-04-27T00:53:37.485Z,17.70
2018-04-27T00:54:14.831Z,17.70
2018-04-27T00:54:53.150Z,17.80
2018-04-27T00:55:30.818Z,17.80
2018-04-27T00:56:08.329Z,17.80
2018-04-27T00:56:45.904Z,17.90
2018-04-27T00:57:23.459Z,17.90
2018-04-27T00:58:00.824Z,18.00
2018-04-27T00:58:39.156Z,18.20
2018-04-27T00:59:16.739Z,18.20
2018-04-27T00:59:54.335Z,18.20
2018-04-27T01:00:31.922Z,18.20
2018-04-27T01:01:09.501Z,18.20
2018-04-27T01:01:46.822Z,18.10
2018-04-27T01:02:25.175Z,18.00
2018-04-27T01:03:02.736Z,18.00
2018-04-27T01:03:40.331Z,17.90
2018-04-27T01:04:17.946Z,17.90
2018-04-27T01:04:55.487Z,17.90
2018-04-27T01:05:33.017Z,17.90
2018-04-27T01:06:10.658Z,17.80
2018-04-27T01:06:48.946Z,17.80
2018-04-27T01:07:26.492Z,17.70
2018-04-27T01:08:04.032Z,17.70
2018-04-27T01:08:42.231Z,17.70
2018-04-27T01:09:19.690Z,17.60
2018-04-27T01:09:57.244Z,17.70
2018-04-27T01:10:34.745Z,17.60
2018-04-27T01:11:12.388Z,17.60
2018-04-27T01:11:49.871Z,17.60
2018-04-27T01:12:28.087Z,17.60
2018-04-27T01:13:05.463Z,17.60
2018-04-27T01:13:42.846Z,17.60
2018-04-27T01:14:20.185Z,17.50
2018-04-27T01:14:57.752Z,17.50
2018-04-27T01:15:35.302Z,17.60
2018-04-27T01:16:12.779Z,17.60
2018-04-27T01:16:50.401Z,17.60
2018-04-27T01:17:27.978Z,17.50
2018-04-27T01:18:05.529Z,17.50
2018-04-27T01:18:43.689Z,17.50
2018-04-27T01:19:21.050Z,17.50
2018-04-27T01:19:58.440Z,17.50
2018-04-27T01:20:36.060Z,17.50
2018-04-27T01:21:13.681Z,17.50
2018-04-27T01:21:51.839Z,17.50
2018-04-27T01:22:29.398Z,17.50
2018-04-27T01:23:06.827Z,17.50
2018-04-27T01:23:44.228Z,17.50
2018-04-27T01:24:22.440Z,17.40
2018-04-27T01:25:00.028Z,17.50
2018-04-27T01:25:37.655Z,17.40
2018-04-27T01:26:15.069Z,17.40
2018-04-27T01:26:52.691Z,17.30
2018-04-27T01:27:30.752Z,17.30
2018-04-27T01:28:08.259Z,17.30
2018-04-27T01:28:46.415Z,17.30
2018-04-27T01:29:24.518Z,17.40
2018-04-27T01:30:01.873Z,17.40
2018-04-27T01:30:39.423Z,17.40
2018-04-27T01:31:16.787Z,17.40
2018-04-27T01:31:54.324Z,17.50
2018-04-27T01:32:31.698Z,17.40
2018-04-27T01:33:09.295Z,17.50
2018-04-27T01:33:46.651Z,17.50
2018-04-27T01:34:24.011Z,17.50
2018-04-27T01:35:01.503Z,17.40
2018-04-27T01:35:38.928Z,17.40
2018-04-27T01:36:16.477Z,17.40
2018-04-27T01:36:54.567Z,17.30
2018-04-27T01:37:32.134Z,17.40
2018-04-27T01:38:10.479Z,17.40
2018-04-27T01:38:48.000Z,17.40
2018-04-27T01:39:25.430Z,17.40
2018-04-27T01:40:02.915Z,17.40
2018-04-27T01:40:40.510Z,17.40
2018-04-27T01:41:17.858Z,17.40
2018-04-27T01:41:55.455Z,17.30
2018-04-27T01:42:33.043Z,17.40
2018-04-27T01:43:10.752Z,17.40
2018-04-27T01:43:48.182Z,17.40
2018-04-27T01:44:25.704Z,17.40
2018-04-27T01:45:03.315Z,17.40
2018-04-27T01:45:40.811Z,17.40
2018-04-27T01:46:18.312Z,17.40
2018-04-27T01:46:55.853Z,17.40
2018-04-27T01:47:33.343Z,17.40
2018-04-27T01:48:10.947Z,17.30
2018-04-27T01:48:48.545Z,17.30
2018-04-27T01:49:26.124Z,17.30
2018-04-27T01:50:03.614Z,17.30
2018-04-27T01:50:41.191Z,17.30
2018-04-27T01:51:18.743Z,17.40
2018-04-27T01:51:56.339Z,17.40
2018-04-27T01:52:34.520Z,17.40
2018-04-27T01:53:12.162Z,17.40
2018-04-27T01:53:49.664Z,17.40
2018-04-27T01:54:27.021Z,17.40
2018-04-27T01:55:04.545Z,17.40
2018-04-27T01:55:42.117Z,17.40
2018-04-27T01:56:20.211Z,17.40
2018-04-27T01:56:57.794Z,17.40
2018-04-27T01:57:35.376Z,17.40
2018-04-27T01:58:12.974Z,17.40
2018-04-27T01:58:50.579Z,17.40
2018-04-27T01:59:27.941Z,17.40
2018-04-27T02:00:05.400Z,17.40
2018-04-27T02:00:42.985Z,17.40
2018-04-27T02:01:20.394Z,17.40
2018-04-27T02:01:57.950Z,17.50
2018-04-27T02:02:35.528Z,17.40
2018-04-27T02:03:13.825Z,17.40
2018-04-27T02:03:51.261Z,17.30
2018-04-27T02:04:28.779Z,17.30
2018-04-27T02:05:06.959Z,17.30
2018-04-27T02:05:44.516Z,17.30
2018-04-27T02:06:22.068Z,17.40
2018-04-27T02:06:59.640Z,17.40
2018-04-27T02:07:37.178Z,17.50
2018-04-27T02:08:14.755Z,17.50
2018-04-27T02:08:52.124Z,17.60
2018-04-27T02:09:29.560Z,17.60
2018-04-27T02:10:06.918Z,17.60
2018-04-27T02:10:44.484Z,17.60
2018-04-27T02:11:22.643Z,17.60
2018-04-27T02:12:00.983Z,17.60
2018-04-27T02:12:38.542Z,17.60
2018-04-27T02:13:15.957Z,17.70
2018-04-27T02:13:54.024Z,17.60
2018-04-27T02:14:31.581Z,17.60
2018-04-27T02:15:09.740Z,17.60
2018-04-27T02:15:47.277Z,17.60
2018-04-27T02:16:25.488Z,17.60
2018-04-27T02:17:03.074Z,17.60
2018-04-27T02:17:40.642Z,17.60
2018-04-27T02:18:18.023Z,17.60
2018-04-27T02:18:55.609Z,17.60
2018-04-27T02:19:33.119Z,17.60
2018-04-27T02:20:10.610Z,17.60
2018-04-27T02:20:48.142Z,17.60
2018-04-27T02:21:25.679Z,17.60
2018-04-27T02:22:03.806Z,17.60
2018-04-27T02:22:41.228Z,17.60
2018-04-27T02:23:19.462Z,17.60
2018-04-27T02:23:57.774Z,17.60
2018-04-27T02:24:35.232Z,17.50
2018-04-27T02:25:12.617Z,17.60
2018-04-27T02:25:50.001Z,17.60
2018-04-27T02:26:27.515Z,17.60
2018-04-27T02:27:05.088Z,17.60
2018-04-27T02:27:42.516Z,17.60
2018-04-27T02:28:20.151Z,17.60
2018-04-27T02:28:57.619Z,17.70
2018-04-27T02:29:35.165Z,17.70
2018-04-27T02:30:12.696Z,17.70
2018-04-27T02:30:50.968Z,17.80
2018-04-27T02:31:28.548Z,17.80
2018-04-27T02:32:06.149Z,17.80
2018-04-27T02:32:43.703Z,17.90
2018-04-27T02:33:21.053Z,18.00
2018-04-27T02:33:59.202Z,18.00
2018-04-27T02:34:36.697Z,18.00
2018-04-27T02:35:14.883Z,18.10
2018-04-27T02:35:52.377Z,18.10
2018-04-27T02:36:29.792Z,18.10
2018-04-27T02:37:07.165Z,18.10
2018-04-27T02:37:44.529Z,18.20
2018-04-27T02:38:21.951Z,18.10
2018-04-27T02:38:59.514Z,18.10
2018-04-27T02:39:37.840Z,17.90
2018-04-27T02:40:15.415Z,17.90
2018-04-27T02:40:52.990Z,17.90
2018-04-27T02:41:30.311Z,17.80
2018-04-27T02:42:07.674Z,17.80
2018-04-27T02:42:45.313Z,17.80
2018-04-27T02:43:22.673Z,17.70
2018-04-27T02:44:00.062Z,17.70
2018-04-27T02:44:37.586Z,17.70
2018-04-27T02:45:15.271Z,17.70
2018-04-27T02:45:52.821Z,17.60
2018-04-27T02:46:30.443Z,17.60
2018-04-27T02:47:08.484Z,17.60
2018-04-27T02:47:46.636Z,17.60
2018-04-27T02:48:24.266Z,17.60
2018-04-27T02:49:01.762Z,17.60
2018-04-27T02:49:39.219Z,17.60
2018-04-27T02:50:16.731Z,17.50
2018-04-27T02:50:54.290Z,17.50
2018-04-27T02:51:31.900Z,17.40
2018-04-27T02:52:09.503Z,17.40
2018-04-27T02:52:47.024Z,17.50
2018-04-27T02:53:24.657Z,17.50
2018-04-27T02:54:02.197Z,17.50
2018-04-27T02:54:40.485Z,17.50
2018-04-27T02:55:18.822Z,17.40
2018-04-27T02:55:56.360Z,17.40
2018-04-27T02:56:33.744Z,17.40
2018-04-27T02:57:11.183Z,17.50
2018-04-27T02:57:49.318Z,17.50
2018-04-27T02:58:26.659Z,17.50
2018-04-27T02:59:04.269Z,17.50
2018-04-27T02:59:41.888Z,17.60
2018-04-27T03:00:19.436Z,17.60
2018-04-27T03:00:56.935Z,17.80
2018-04-27T03:01:34.409Z,17.90
2018-04-27T03:02:11.947Z,17.90
2018-04-27T03:02:50.251Z,18.10
2018-04-27T03:03:27.814Z,18.10
2018-04-27T03:04:05.135Z,18.20
2018-04-27T03:04:42.741Z,18.20
2018-04-27T03:05:20.280Z,18.20
2018-04-27T03:05:57.839Z,18.20
2018-04-27T03:06:35.284Z,18.20
2018-04-27T03:07:12.850Z,18.20
2018-04-27T03:07:51.229Z,18.10
2018-04-27T03:08:29.307Z,18.00
2018-04-27T03:09:07.415Z,18.00
2018-04-27T03:09:45.718Z,18.00
2018-04-27T03:10:23.832Z,17.90
2018-04-27T03:11:01.318Z,17.80
2018-04-27T03:11:39.516Z,17.80
2018-04-27T03:12:17.697Z,17.90
2018-04-27T03:12:55.200Z,17.90
2018-04-27T03:13:32.762Z,17.90
2018-04-27T03:14:10.332Z,17.80
2018-04-27T03:14:47.722Z,17.80
2018-04-27T03:15:25.279Z,17.80
2018-04-27T03:16:02.749Z,17.70
2018-04-27T03:16:40.324Z,17.70
2018-04-27T03:17:18.623Z,17.70
2018-04-27T03:17:56.249Z,17.80
2018-04-27T03:18:34.543Z,17.70
2018-04-27T03:19:12.703Z,17.70
2018-04-27T03:19:50.278Z,17.70
2018-04-27T03:20:28.572Z,17.80
2018-04-27T03:21:05.960Z,17.80
2018-04-27T03:21:43.431Z,17.80
2018-04-27T03:22:20.875Z,17.80
2018-04-27T03:22:58.472Z,17.90
2018-04-27T03:23:35.996Z,17.90
2018-04-27T03:24:13.499Z,18.00
2018-04-27T03:24:51.705Z,17.90
2018-04-27T03:25:29.979Z,17.80
2018-04-27T03:26:07.546Z,17.80
2018-04-27T03:26:45.141Z,17.70
2018-04-27T03:27:22.566Z,17.70
2018-04-27T03:27:59.945Z,17.60
2018-04-27T03:28:37.323Z,17.60
2018-04-27T03:29:14.852Z,17.60
2018-04-27T03:29:52.419Z,17.70
2018-04-27T03:30:30.065Z,17.70
2018-04-27T03:31:08.188Z,17.60
2018-04-27T03:31:45.830Z,17.60
2018-04-27T03:32:24.077Z,17.80
2018-04-27T03:33:01.549Z,17.80
2018-04-27T03:33:39.031Z,17.80
2018-04-27T03:34:16.635Z,17.90
2018-04-27T03:34:54.906Z,17.80
2018-04-27T03:35:33.218Z,17.80
2018-04-27T03:36:11.514Z,17.80
2018-04-27T03:36:49.084Z,17.80
2018-04-27T03:37:26.687Z,17.80
2018-04-27T03:38:04.267Z,17.80
2018-04-27T03:38:42.466Z,17.80
2018-04-27T03:39:20.642Z,17.70
2018-04-27T03:39:57.997Z,17.70
2018-04-27T03:40:36.301Z,17.60
2018-04-27T03:41:13.864Z,17.60
2018-04-27T03:41:51.235Z,17.70
2018-04-27T03:42:29.366Z,17.70
2018-04-27T03:43:06.932Z,17.70
2018-04-27T03:43:44.311Z,17.70
2018-04-27T03:44:21.903Z,17.80
2018-04-27T03:44:59.518Z,17.90
2018-04-27T03:45:37.021Z,18.00
2018-04-27T03:46:14.571Z,18.00
2018-04-27T03:46:51.941Z,18.00
2018-04-27T03:47:29.516Z,17.90
2018-04-27T03:48:07.068Z,18.00
2018-04-27T03:48:44.683Z,17.90
2018-04-27T03:49:22.845Z,17.90
2018-04-27T03:50:00.976Z,17.90
2018-04-27T03:50:38.587Z,17.80
2018-04-27T03:51:16.087Z,17.90
2018-04-27T03:51:53.573Z,17.90
2018-04-27T03:52:31.047Z,17.80
2018-04-27T03:53:08.652Z,17.70
2018-04-27T03:53:46.185Z,17.70
2018-04-27T03:54:23.676Z,17.60
2018-04-27T03:55:01.077Z,17.60
2018-04-27T03:55:39.194Z,17.40
2018-04-27T03:56:16.633Z,17.50
2018-04-27T03:56:54.128Z,17.40
2018-04-27T03:57:31.638Z,17.40
2018-04-27T03:58:09.204Z,17.40
2018-04-27T03:58:46.911Z,17.40
2018-04-27T03:59:25.334Z,17.40
2018-04-27T04:00:02.862Z,17.40
2018-04-27T04:00:40.450Z,17.30
2018-04-27T04:01:18.059Z,17.30
2018-04-27T04:01:55.608Z,17.30
2018-04-27T04:02:32.955Z,17.30
2018-04-27T04:03:10.499Z,17.40
2018-04-27T04:03:48.650Z,17.30
2018-04-27T04:04:26.754Z,17.30
2018-04-27T04:05:04.231Z,17.30
2018-04-27T04:05:41.876Z,17.30
2018-04-27T04:06:20.115Z,17.30
2018-04-27T04:06:57.574Z,17.30
2018-04-27T04:07:34.914Z,17.40
2018-04-27T04:08:12.456Z,17.40
2018-04-27T04:08:50.752Z,17.40
2018-04-27T04:09:28.339Z,17.40
2018-04-27T04:10:06.620Z,17.40
2018-04-27T04:10:44.194Z,17.40
2018-04-27T04:11:21.786Z,17.40
2018-04-27T04:11:59.412Z,17.50
2018-04-27T04:12:37.744Z,17.40
2018-04-27T04:13:15.951Z,17.40
2018-04-27T04:13:53.345Z,17.40
2018-04-27T04:14:30.882Z,17.50
2018-04-27T04:15:09.114Z,17.70
2018-04-27T04:15:46.764Z,17.70
2018-04-27T04:16:24.263Z,17.80
2018-04-27T04:17:02.387Z,17.90
2018-04-27T04:17:39.943Z,17.90
2018-04-27T04:18:17.542Z,18.00
2018-04-27T04:18:55.853Z,17.90
2018-04-27T04:19:34.129Z,17.90
2018-04-27T04:20:11.459Z,17.90
2018-04-27T04:20:48.983Z,17.90
2018-04-27T04:21:26.473Z,18.00
2018-04-27T04:22:04.073Z,18.00
2018-04-27T04:22:42.260Z,18.00
2018-04-27T04:23:20.537Z,18.10
2018-04-27T04:23:58.179Z,18.10
2018-04-27T04:24:35.686Z,18.10
2018-04-27T04:25:13.252Z,18.00
2018-04-27T04:25:50.914Z,18.10
2018-04-27T04:26:28.971Z,18.00
2018-04-27T04:27:06.565Z,18.00
2018-04-27T04:27:44.149Z,17.90
2018-04-27T04:28:21.484Z,17.80
2018-04-27T04:28:58.856Z,17.80
2018-04-27T04:29:36.226Z,17.80
2018-04-27T04:30:13.810Z,17.80
2018-04-27T04:30:51.198Z,17.80
2018-04-27T04:31:28.745Z,17.90
2018-04-27T04:32:06.316Z,17.90
2018-04-27T04:32:44.467Z,18.00
2018-04-27T04:33:21.815Z,18.00
2018-04-27T04:33:59.443Z,18.10
2018-04-27T04:34:37.704Z,18.20
2018-04-27T04:35:16.041Z,18.30
2018-04-27T04:35:53.612Z,18.30
2018-04-27T04:36:31.187Z,18.40
2018-04-27T04:37:08.791Z,18.30
2018-04-27T04:37:46.199Z,18.30
2018-04-27T04:38:23.633Z,18.30
2018-04-27T04:39:00.940Z,18.30
2018-04-27T04:39:38.465Z,18.40
2018-04-27T04:40:15.821Z,18.40
2018-04-27T04:40:54.134Z,18.40
2018-04-27T04:41:32.446Z,18.40
2018-04-27T04:42:09.904Z,18.30
2018-04-27T04:42:48.016Z,18.40
2018-04-27T04:43:25.352Z,18.40
2018-04-27T04:44:02.749Z,18.40
2018-04-27T04:44:40.114Z,18.40
2018-04-27T04:45:17.494Z,18.40
2018-04-27T04:45:55.114Z,18.30
2018-04-27T04:46:33.419Z,18.30
2018-04-27T04:47:10.771Z,18.30
2018-04-27T04:47:48.438Z,18.20
2018-04-27T04:48:25.940Z,18.20
2018-04-27T04:49:04.040Z,18.10
2018-04-27T04:49:42.140Z,18.10
2018-04-27T04:50:19.711Z,18.10
2018-04-27T04:50:57.273Z,18.10
2018-04-27T04:51:35.594Z,18.10
2018-04-27T04:52:13.669Z,18.10
2018-04-27T04:52:52.075Z,18.10
2018-04-27T04:53:30.378Z,18.10
2018-04-27T04:54:08.663Z,18.10
2018-04-27T04:54:46.015Z,18.10
2018-04-27T04:55:23.522Z,18.00
2018-04-27T04:56:00.872Z,18.00
2018-04-27T04:56:39.014Z,17.90
2018-04-27T04:57:16.591Z,17.90
2018-04-27T04:57:54.183Z,17.90
2018-04-27T04:58:31.732Z,17.90
2018-04-27T04:59:09.083Z,17.90
2018-04-27T04:59:46.377Z,18.00
2018-04-27T05:00:23.983Z,17.90
2018-04-27T05:01:01.578Z,17.90
2018-04-27T05:01:39.133Z,18.00
2018-04-27T05:02:17.246Z,18.10
2018-04-27T05:02:54.937Z,18.10
2018-04-27T05:03:32.450Z,18.00
2018-04-27T05:04:09.783Z,18.10
2018-04-27T05:04:47.365Z,18.10
2018-04-27T05:05:24.935Z,18.10
2018-04-27T05:06:02.501Z,18.20
2018-04-27T05:06:39.876Z,18.20
2018-04-27T05:07:17.380Z,18.10
2018-04-27T05:07:54.945Z,18.20
2018-04-27T05:08:32.298Z,18.20
2018-04-27T05:09:10.615Z,18.20
2018-04-27T05:09:48.914Z,18.20
2018-04-27T05:10:27.034Z,18.20
2018-04-27T05:11:04.653Z,18.30
2018-04-27T05:11:42.195Z,18.20
2018-04-27T05:12:19.563Z,18.20
2018-04-27T05:12:56.926Z,18.30
2018-04-27T05:13:35.020Z,18.20
2018-04-27T05:14:12.675Z,18.20
2018-04-27T05:14:51.003Z,18.20
2018-04-27T05:15:28.302Z,18.20
2018-04-27T05:16:05.911Z,18.20
2018-04-27T05:16:43.541Z,18.20
2018-04-27T05:17:20.902Z,18.30
2018-04-27T05:17:58.527Z,18.30
2018-04-27T05:18:35.835Z,18.30
2018-04-27T05:19:13.386Z,18.20
2018-04-27T05:19:51.548Z,18.20
2018-04-27T05:20:29.143Z,18.30
2018-04-27T05:21:06.503Z,18.30
2018-04-27T05:21:44.102Z,18.20
2018-04-27T05:22:22.399Z,18.10
2018-04-27T05:23:00.007Z,18.10
2018-04-27T05:23:37.518Z,18.00
2018-04-27T05:24:15.721Z,18.00
2018-04-27T05:24:53.033Z,18.00
2018-04-27T05:25:30.385Z,18.00
2018-04-27T05:26:07.774Z,18.00
2018-04-27T05:26:45.241Z,17.90
2018-04-27T05:27:22.828Z,17.90
2018-04-27T05:28:01.051Z,17.80
2018-04-27T05:28:38.615Z,17.80
2018-04-27T05:29:16.072Z,17.80
2018-04-27T05:29:53.720Z,17.70
2018-04-27T05:30:31.872Z,17.70
2018-04-27T05:31:09.487Z,17.70
2018-04-27T05:31:47.743Z,17.60
2018-04-27T05:32:25.348Z,17.60
2018-04-27T05:33:02.765Z,17.60
2018-04-27T05:33:40.402Z,17.70
2018-04-27T05:34:17.975Z,17.70
2018-04-27T05:34:55.557Z,17.70
2018-04-27T05:35:33.661Z,17.80
2018-04-27T05:36:10.996Z,17.80
2018-04-27T05:36:48.611Z,17.80
2018-04-27T05:37:26.242Z,17.80
2018-04-27T05:38:03.763Z,17.90
2018-04-27T05:38:41.042Z,17.90
2018-04-27T05:39:19.133Z,18.00
2018-04-27T05:39:56.463Z,18.00
2018-04-27T05:40:34.055Z,18.00
2018-04-27T05:41:11.585Z,17.90
2018-04-27T05:41:49.158Z,17.90
2018-04-27T05:42:26.766Z,17.90
2018-04-27T05:43:04.366Z,17.90
2018-04-27T05:43:41.905Z,17.90
2018-04-27T05:44:19.394Z,18.00
2018-04-27T05:44:56.982Z,18.00
2018-04-27T05:45:35.352Z,18.00
2018-04-27T05:46:12.952Z,18.00
2018-04-27T05:46:50.391Z,18.00
2018-04-27T05:47:27.884Z,17.90
2018-04-27T05:48:06.212Z,17.90
2018-04-27T05:48:44.590Z,18.00
2018-04-27T05:49:22.193Z,18.00
2018-04-27T05:49:59.767Z,18.00
2018-04-27T05:50:37.330Z,18.00
2018-04-27T05:51:15.617Z,17.90
2018-04-27T05:51:52.970Z,17.90
2018-04-27T05:52:30.495Z,17.90
2018-04-27T05:53:07.886Z,17.80
2018-04-27T05:53:45.458Z,17.80
2018-04-27T05:54:23.640Z,17.70
2018-04-27T05:55:01.234Z,17.70
2018-04-27T05:55:38.587Z,17.60
2018-04-27T05:56:15.880Z,17.50
2018-04-27T05:56:53.459Z,17.40
2018-04-27T05:57:31.678Z,17.40
2018-04-27T05:58:09.462Z,17.30
2018-04-27T05:58:47.032Z,17.30
2018-04-27T05:59:25.330Z,17.20
2018-04-27T06:00:02.920Z,17.20
2018-04-27T06:00:40.380Z,17.10
2018-04-27T06:01:17.873Z,17.10
2018-04-27T06:01:55.440Z,17.10
2018-04-27T06:02:32.988Z,17.10
2018-04-27T06:03:10.418Z,17.10
2018-04-27T06:03:47.979Z,17.10
2018-04-27T06:04:25.559Z,17.00
2018-04-27T06:05:03.750Z,17.00
2018-04-27T06:05:41.182Z,17.00
2018-04-27T06:06:18.820Z,17.00
2018-04-27T06:06:56.262Z,17.00
2018-04-27T06:07:33.691Z,17.00
2018-04-27T06:08:11.203Z,17.10
2018-04-27T06:08:48.862Z,17.20
2018-04-27T06:09:26.402Z,17.30
2018-04-27T06:10:04.581Z,17.40
2018-04-27T06:10:41.871Z,17.40
2018-04-27T06:11:19.212Z,17.40
2018-04-27T06:11:56.727Z,17.40
2018-04-27T06:12:34.206Z,17.40
2018-04-27T06:13:11.848Z,17.50
2018-04-27T06:13:49.513Z,17.50
2018-04-27T06:14:27.679Z,17.60
2018-04-27T06:15:05.259Z,17.50
2018-04-27T06:15:42.850Z,17.50
2018-04-27T06:16:20.390Z,17.60
2018-04-27T06:16:57.986Z,17.60
2018-04-27T06:17:35.351Z,17.70
2018-04-27T06:18:12.877Z,17.70
2018-04-27T06:18:50.441Z,17.80
2018-04-27T06:19:27.938Z,17.80
2018-04-27T06:20:05.534Z,17.70
2018-04-27T06:20:42.979Z,17.70
2018-04-27T06:21:20.602Z,17.60
2018-04-27T06:21:58.128Z,17.60
2018-04-27T06:22:35.736Z,17.60
2018-04-27T06:23:13.335Z,17.50
2018-04-27T06:23:51.521Z,17.40
2018-04-27T06:24:29.686Z,17.30
2018-04-27T06:25:07.788Z,17.30
2018-04-27T06:25:45.379Z,17.30
2018-04-27T06:26:22.706Z,17.30
2018-04-27T06:27:00.174Z,17.30
2018-04-27T06:27:37.713Z,17.30
2018-04-27T06:28:15.287Z,17.30
2018-04-27T06:28:52.884Z,17.40
2018-04-27T06:29:30.444Z,17.50
2018-04-27T06:30:08.548Z,17.60
2018-04-27T06:30:45.891Z,17.60
2018-04-27T06:31:23.474Z,17.70
2018-04-27T06:32:00.991Z,17.60
2018-04-27T06:32:38.509Z,17.60
2018-04-27T06:33:16.055Z,17.60
2018-04-27T06:33:53.655Z,17.70
2018-04-27T06:34:32.007Z,17.60
2018-04-27T06:35:09.434Z,17.60
2018-04-27T06:35:46.992Z,17.50
2018-04-27T06:36:25.263Z,17.50
2018-04-27T06:37:02.797Z,17.50
2018-04-27T06:37:40.345Z,17.40
2018-04-27T06:38:17.890Z,17.30
2018-04-27T06:38:55.524Z,17.30
2018-04-27T06:39:33.041Z,17.30
2018-04-27T06:40:10.669Z,17.30
2018-04-27T06:40:48.979Z,17.30
2018-04-27T06:41:26.467Z,17.20
2018-04-27T06:42:03.882Z,17.20
2018-04-27T06:42:42.198Z,17.30
2018-04-27T06:43:19.753Z,17.20
2018-04-27T06:43:57.139Z,17.30
2018-04-27T06:44:34.662Z,17.40
2018-04-27T06:45:12.227Z,17.40
2018-04-27T06:45:49.781Z,17.40
2018-04-27T06:46:27.417Z,17.50
2018-04-27T06:47:04.843Z,17.50
2018-04-27T06:47:42.184Z,17.50
2018-04-27T06:48:19.686Z,17.50
2018-04-27T06:48:57.070Z,17.50
2018-04-27T06:49:34.647Z,17.50
2018-04-27T06:50:12.779Z,17.50
2018-04-27T06:50:50.358Z,17.50
2018-04-27T06:51:27.874Z,17.50
2018-04-27T06:52:05.380Z,17.60
2018-04-27T06:52:42.805Z,17.60
2018-04-27T06:53:20.355Z,17.60
2018-04-27T06:53:58.701Z,17.60
2018-04-27T06:54:36.258Z,17.60
2018-04-27T06:55:13.594Z,17.70
2018-04-27T06:55:51.131Z,17.70
2018-04-27T06:56:28.676Z,17.70
2018-04-27T06:57:06.267Z,17.60
2018-04-27T06:57:43.878Z,17.60
2018-04-27T06:58:22.140Z,17.60
2018-04-27T06:58:59.724Z,17.60
2018-04-27T06:59:37.295Z,17.50
2018-04-27T07:00:14.900Z,17.60
2018-04-27T07:00:53.207Z,17.60
2018-04-27T07:01:30.772Z,17.50
2018-04-27T07:02:08.316Z,17.50
2018-04-27T07:02:45.718Z,17.50
2018-04-27T07:03:23.249Z,17.50
2018-04-27T07:04:00.651Z,17.40
2018-04-27T07:04:38.052Z,17.40
2018-04-27T07:05:15.751Z,17.30
2018-04-27T07:05:53.220Z,17.30
2018-04-27T07:06:30.847Z,17.30
2018-04-27T07:07:08.407Z,17.30
2018-04-27T07:07:46.684Z,17.30
2018-04-27T07:08:24.270Z,17.20
2018-04-27T07:09:01.759Z,17.30
2018-04-27T07:09:39.342Z,17.30
2018-04-27T07:10:16.972Z,17.30
2018-04-27T07:10:54.495Z,17.30
2018-04-27T07:11:31.968Z,17.30
2018-04-27T07:12:09.302Z,17.30
2018-04-27T07:12:46.864Z,17.30
2018-04-27T07:13:24.504Z,17.30
2018-04-27T07:14:02.124Z,17.20
2018-04-27T07:14:39.605Z,17.20
2018-04-27T07:15:17.140Z,17.20
2018-04-27T07:15:54.726Z,17.20
2018-04-27T07:16:32.343Z,17.20
2018-04-27T07:17:09.974Z,17.20
2018-04-27T07:17:47.984Z,17.10
2018-04-27T07:18:25.589Z,17.10
2018-04-27T07:19:03.200Z,17.10
2018-04-27T07:19:40.732Z,17.10
2018-04-27T07:20:18.357Z,17.10
2018-04-27T07:20:55.926Z,17.10
2018-04-27T07:21:33.485Z,17.10
2018-04-27T07:22:11.064Z,17.20
2018-04-27T07:22:48.641Z,17.20
2018-04-27T07:23:26.840Z,17.20
2018-04-27T07:24:04.211Z,17.20
2018-04-27T07:24:41.806Z,17.30
2018-04-27T07:25:20.171Z,17.20
2018-04-27T07:25:58.599Z,17.20
2018-04-27T07:26:36.093Z,17.20
2018-04-27T07:27:13.412Z,17.20
2018-04-27T07:27:50.975Z,17.20
2018-04-27T07:28:28.386Z,17.30
2018-04-27T07:29:05.926Z,17.30
2018-04-27T07:29:43.352Z,17.40
2018-04-27T07:30:20.856Z,17.40
2018-04-27T07:30:58.347Z,17.40
2018-04-27T07:31:36.705Z,17.40
2018-04-27T07:32:15.023Z,17.40
2018-04-27T07:32:53.114Z,17.40
2018-04-27T07:33:30.710Z,17.40
2018-04-27T07:34:08.325Z,17.40
2018-04-27T07:34:45.859Z,17.50
2018-04-27T07:35:24.159Z,17.50
2018-04-27T07:36:01.503Z,17.50
2018-04-27T07:36:39.621Z,17.60
2018-04-27T07:37:17.210Z,17.60
2018-04-27T07:37:54.679Z,17.60
2018-04-27T07:38:32.019Z,17.60
2018-04-27T07:39:10.175Z,17.50
2018-04-27T07:39:47.590Z,17.50
2018-04-27T07:40:24.951Z,17.50
2018-04-27T07:41:02.317Z,17.50
2018-04-27T07:41:39.841Z,17.50
2018-04-27T07:42:17.185Z,17.50
2018-04-27T07:42:54.688Z,17.50
2018-04-27T07:43:32.116Z,17.50
2018-04-27T07:44:10.420Z,17.40
2018-04-27T07:44:48.710Z,17.40
2018-04-27T07:45:26.279Z,17.40
2018-04-27T07:46:03.848Z,17.50
2018-04-27T07:46:41.446Z,17.50
2018-04-27T07:47:19.754Z,17.50
2018-04-27T07:47:57.302Z,17.50
2018-04-27T07:48:34.876Z,17.50
2018-04-27T07:49:12.383Z,17.40
2018-04-27T07:49:49.973Z,17.40
2018-04-27T07:50:28.143Z,17.30
2018-04-27T07:51:05.720Z,17.30
2018-04-27T07:51:43.321Z,17.30
2018-04-27T07:52:20.884Z,17.40
2018-04-27T07:52:58.991Z,17.50
2018-04-27T07:53:37.296Z,17.50
2018-04-27T07:54:14.672Z,17.50
2018-04-27T07:54:52.263Z,17.50
2018-04-27T07:55:29.838Z,17.50
2018-04-27T07:56:07.230Z,17.50
2018-04-27T07:56:44.793Z,17.40
2018-04-27T07:57:22.297Z,17.40
2018-04-27T07:57:59.845Z,17.40
2018-04-27T07:58:37.227Z,17.40
2018-04-27T07:59:15.537Z,17.50
2018-04-27T07:59:53.132Z,17.50
2018-04-27T08:00:31.396Z,17.60
2018-04-27T08:01:08.999Z,17.60
2018-04-27T08:01:46.565Z,17.60
2018-04-27T08:02:24.857Z,17.60
2018-04-27T08:03:02.349Z,17.60
2018-04-27T08:03:40.532Z,17.70
2018-04-27T08:04:18.125Z,17.70
2018-04-27T08:04:55.651Z,17.80